Time;durP1;ratioP1;P1;durP2;ratioP2;P2;SDS_P1;SDS_P2;PMS_P1;PMS_P2;Temp;Humidity;BMP_temperature;BMP_pressure;BME280_temperature;BME280_humidity;BME280_pressure;Samples;Min_cycle;Max_cycle;Signal;HPM_P1;HPM_P2
2021/06/19 00:00:18;;;;;;;7.33;2.20;;;;;;;18.36;71.20;100573.66;1760534;81;21100;-82
2021/06/19 00:02:45;;;;;;;9.03;2.10;;;;;;;18.34;71.27;100575.08;1759460;81;21502;-82
2021/06/19 00:05:13;;;;;;;3.77;2.08;;;;;;;18.34;71.41;100570.23;1760306;81;21066;-82
2021/06/19 00:07:43;;;;;;;7.10;2.50;;;;;;;18.31;71.41;100569.06;1759924;81;21108;-81
2021/06/19 00:10:10;;;;;;;6.45;1.90;;;;;;;18.29;71.62;100569.63;1760386;81;21606;-81
2021/06/19 00:12:37;;;;;;;4.87;2.10;;;;;;;18.27;71.63;100568.86;1759644;81;21471;-80
2021/06/19 00:15:09;;;;;;;5.12;2.35;;;;;;;18.25;71.74;100568.98;1760773;81;21043;-79
2021/06/19 00:17:37;;;;;;;10.20;2.22;;;;;;;18.23;71.76;100569.06;1759891;81;21155;-79
2021/06/19 00:20:11;;;;;;;5.40;2.30;;;;;;;18.22;71.94;100571.37;1760211;81;21095;-80
2021/06/19 00:22:38;;;;;;;4.17;2.02;;;;;;;18.20;72.05;100569.75;1759762;81;21580;-81
2021/06/19 00:25:07;;;;;;;3.60;2.20;;;;;;;18.19;72.14;100569.35;1760077;81;21005;-78
2021/06/19 00:27:34;;;;;;;4.83;1.82;;;;;;;18.17;72.18;100565.44;1760607;81;21063;-77
2021/06/19 00:30:01;;;;;;;4.62;1.98;;;;;;;18.14;72.25;100566.97;1760206;81;21388;-77
2021/06/19 00:32:28;;;;;;;4.67;1.60;;;;;;;18.10;72.34;100574.77;1758835;81;21594;-77
2021/06/19 00:34:55;;;;;;;3.25;1.80;;;;;;;18.08;72.53;100575.33;1759632;81;21095;-77
2021/06/19 00:37:23;;;;;;;3.72;1.90;;;;;;;18.03;72.69;100571.62;1760305;81;21079;-78
2021/06/19 00:39:50;;;;;;;7.30;2.20;;;;;;;18.01;72.78;100568.66;1758968;81;21165;-79
2021/06/19 00:42:19;;;;;;;6.10;2.00;;;;;;;17.99;72.88;100566.56;1759670;81;21284;-78
2021/06/19 00:44:47;;;;;;;4.65;1.90;;;;;;;17.96;72.92;100562.77;1760403;81;21040;-79
2021/06/19 00:47:14;;;;;;;8.20;1.98;;;;;;;17.93;73.06;100562.97;1760346;81;21542;-79
2021/06/19 00:49:41;;;;;;;6.40;1.87;;;;;;;17.90;73.23;100557.80;1759546;81;21001;-79
2021/06/19 00:52:08;;;;;;;5.17;2.10;;;;;;;17.87;73.45;100560.66;1759856;81;21059;-78
2021/06/19 00:54:36;;;;;;;4.47;1.90;;;;;;;17.84;73.66;100565.70;1760432;81;21512;-77
2021/06/19 00:57:05;;;;;;;6.22;2.20;;;;;;;17.79;73.71;100559.29;1759748;81;21091;-79
2021/06/19 00:59:32;;;;;;;7.80;1.90;;;;;;;17.77;73.68;100562.52;1736911;81;21033;-79
2021/06/19 01:01:59;;;;;;;8.55;1.87;;;;;;;17.74;73.89;100561.38;1760344;81;21158;-77
2021/06/19 01:04:26;;;;;;;4.03;1.90;;;;;;;17.71;74.02;100564.20;1759900;81;21099;-79
2021/06/19 01:06:53;;;;;;;6.03;1.60;;;;;;;17.70;74.18;100565.17;1759908;81;21850;-78
2021/06/19 01:09:20;;;;;;;6.35;1.75;;;;;;;17.68;74.33;100561.73;1760671;81;21045;-78
2021/06/19 01:11:48;;;;;;;8.03;1.85;;;;;;;17.65;74.52;100556.60;1759678;81;21471;-78
2021/06/19 01:14:15;;;;;;;4.25;1.90;;;;;;;17.63;74.73;100556.31;1759579;81;21076;-78
2021/06/19 01:16:47;;;;;;;3.20;1.65;;;;;;;17.60;74.87;100554.22;1758837;81;21532;-80
2021/06/19 01:19:14;;;;;;;5.15;1.65;;;;;;;17.58;74.94;100558.77;1760537;81;22177;-77
2021/06/19 01:21:41;;;;;;;3.08;1.55;;;;;;;17.58;75.04;100555.26;1760265;81;21487;-78
2021/06/19 01:24:15;;;;;;;4.10;1.75;;;;;;;17.55;75.10;100551.42;1760198;81;21048;-80
2021/06/19 01:26:43;;;;;;;4.15;1.75;;;;;;;17.53;75.35;100552.87;1759966;81;21028;-80
2021/06/19 01:29:10;;;;;;;4.42;1.90;;;;;;;17.52;75.29;100555.61;1760538;81;21031;-77
2021/06/19 01:31:38;;;;;;;3.55;1.98;;;;;;;17.50;75.41;100554.84;1760656;81;21086;-71
2021/06/19 01:34:05;;;;;;;10.80;2.27;;;;;;;17.49;75.47;100555.80;1759949;81;21587;-70
2021/06/19 01:36:32;;;;;;;8.33;2.22;;;;;;;17.47;75.55;100551.04;1759943;81;21099;-72
2021/06/19 01:38:59;;;;;;;6.10;1.67;;;;;;;17.49;75.51;100550.48;1758536;81;21436;-69
2021/06/19 01:41:28;;;;;;;4.83;1.92;;;;;;;17.49;75.58;100551.81;1760363;81;21004;-69
2021/06/19 01:44:06;;;;;;;4.97;2.00;;;;;;;17.48;75.66;100554.07;1759714;81;21080;-70
2021/06/19 01:46:34;;;;;;;6.20;2.25;;;;;;;17.46;75.81;100549.30;1760600;81;21104;-72
2021/06/19 01:49:02;;;;;;;8.25;1.90;;;;;;;17.45;75.71;100552.45;1761406;80;21174;-71
2021/06/19 01:51:30;;;;;;;5.30;2.15;;;;;;;17.43;75.82;100554.34;1761230;80;21040;-70
2021/06/19 01:53:56;;;;;;;6.22;1.92;;;;;;;17.45;75.79;100552.45;1760691;80;21029;-72
2021/06/19 01:56:23;;;;;;;4.08;2.20;;;;;;;17.44;75.81;100552.53;1761026;81;21473;-72
2021/06/19 01:58:51;;;;;;;6.15;1.80;;;;;;;17.45;75.79;100551.59;1761175;81;21088;-71
2021/06/19 02:01:19;;;;;;;4.33;1.82;;;;;;;17.44;75.87;100560.52;1760894;80;21099;-71
2021/06/19 02:03:48;;;;;;;5.78;2.10;;;;;;;17.43;75.96;100554.82;1760861;80;21049;-72
2021/06/19 02:06:14;;;;;;;4.60;1.62;;;;;;;17.44;75.90;100560.52;1761234;80;21047;-72
2021/06/19 02:08:42;;;;;;;3.87;1.98;;;;;;;17.44;75.93;100557.41;1760932;80;22134;-72
2021/06/19 02:11:09;;;;;;;9.73;2.30;;;;;;;17.45;76.07;100560.92;1760997;80;21218;-72
2021/06/19 02:13:36;;;;;;;5.67;1.70;;;;;;;17.46;75.96;100557.30;1761222;81;21128;-71
2021/06/19 02:16:04;;;;;;;6.10;1.98;;;;;;;17.47;75.96;100557.70;1761822;81;21041;-71
2021/06/19 02:18:31;;;;;;;4.92;1.82;;;;;;;17.49;75.86;100561.12;1760975;80;21049;-71
2021/06/19 02:20:58;;;;;;;5.00;3.05;;;;;;;17.51;75.86;100563.23;1760971;80;21623;-75
2021/06/19 02:23:26;;;;;;;5.17;2.05;;;;;;;17.51;75.90;100565.41;1760731;80;21039;-75
2021/06/19 02:25:53;;;;;;;6.08;2.20;;;;;;;17.51;75.76;100559.23;1765126;79;21564;-74
2021/06/19 02:28:23;;;;;;;8.28;2.10;;;;;;;17.53;75.75;100557.31;1778015;79;21068;-75
2021/06/19 02:30:58;;;;;;;7.73;2.20;;;;;;;17.52;75.75;100559.61;1771204;79;21048;-74
2021/06/19 02:33:25;;;;;;;5.50;2.35;;;;;;;17.53;75.83;100559.97;1760357;81;21154;-72
2021/06/19 02:35:52;;;;;;;9.30;2.22;;;;;;;17.53;75.77;100560.86;1760436;81;21063;-71
2021/06/19 02:38:21;;;;;;;6.75;2.00;;;;;;;17.54;75.86;100559.89;1759666;81;21587;-71
2021/06/19 02:40:49;;;;;;;7.75;1.87;;;;;;;17.56;75.87;100566.47;1760321;81;21008;-72
2021/06/19 02:43:17;;;;;;;3.58;1.82;;;;;;;17.57;75.81;100569.50;1759159;81;22159;-71
2021/06/19 02:45:45;;;;;;;8.33;1.70;;;;;;;17.58;75.83;100567.24;1759628;81;21067;-72
2021/06/19 02:48:12;;;;;;;7.65;1.90;;;;;;;17.61;75.98;100565.72;1769646;79;21108;-72
2021/06/19 02:50:43;;;;;;;8.95;2.08;;;;;;;17.64;75.84;100568.19;1765642;80;21088;-71
2021/06/19 02:53:13;;;;;;;7.03;2.40;;;;;;;17.69;75.76;100568.80;1770404;79;21037;-73
2021/06/19 02:55:42;;;;;;;8.10;2.90;;;;;;;17.73;75.70;100571.63;1774822;79;21031;-71
2021/06/19 02:58:10;;;;;;;4.87;1.85;;;;;;;17.77;75.49;100574.50;1768968;79;21095;-71
2021/06/19 03:00:37;;;;;;;3.47;1.75;;;;;;;17.82;75.27;100573.78;1768206;79;21021;-71
2021/06/19 03:03:05;;;;;;;6.20;2.17;;;;;;;17.89;75.00;100578.75;1756766;80;21686;-70
2021/06/19 03:05:33;;;;;;;3.67;1.70;;;;;;;17.96;74.61;100576.09;1755635;81;21113;-75
2021/06/19 03:08:00;;;;;;;8.95;2.45;;;;;;;18.03;74.35;100585.42;1740583;81;21835;-76
2021/06/19 03:10:32;;;;;;;6.28;1.77;;;;;;;18.11;73.94;100583.64;1760087;81;21130;-76
2021/06/19 03:13:01;;;;;;;7.42;2.10;;;;;;;18.18;73.76;100590.31;1759721;80;21519;-77
2021/06/19 03:15:28;;;;;;;6.47;2.00;;;;;;;18.28;73.38;100587.92;1759388;81;21139;-75
2021/06/19 03:17:55;;;;;;;8.80;2.37;;;;;;;18.36;73.26;100592.32;1760886;80;21061;-76
2021/06/19 03:20:23;;;;;;;6.15;2.27;;;;;;;18.44;72.66;100590.02;1760736;80;21202;-77
2021/06/19 03:22:59;;;;;;;9.23;2.10;;;;;;;18.53;72.23;100593.44;1760913;80;21146;-76
2021/06/19 03:25:29;;;;;;;7.10;2.27;;;;;;;18.61;71.99;100586.27;1760935;80;21096;-77
2021/06/19 03:27:57;;;;;;;4.97;1.87;;;;;;;18.74;71.54;100595.70;1761109;80;22199;-78
2021/06/19 03:30:25;;;;;;;6.55;2.02;;;;;;;18.85;71.12;100587.42;1740947;81;21538;-76
2021/06/19 03:32:52;;;;;;;11.20;3.15;;;;;;;19.01;70.53;100595.30;1757507;81;21229;-76
2021/06/19 03:35:20;;;;;;;7.40;2.20;;;;;;;19.19;69.45;100589.73;1760408;81;21933;-75
2021/06/19 03:37:47;;;;;;;5.90;2.30;;;;;;;19.34;69.21;100591.36;1752749;81;21036;-76
2021/06/19 03:40:16;;;;;;;5.58;2.58;;;;;;;19.45;68.36;100591.51;1750779;81;21591;-77
2021/06/19 03:42:46;;;;;;;7.00;2.55;;;;;;;19.53;68.07;100590.14;1745599;81;21096;-75
2021/06/19 03:45:14;;;;;;;9.58;2.27;;;;;;;19.60;67.87;100595.44;1758984;81;21039;-76
2021/06/19 03:47:42;;;;;;;5.55;2.27;;;;;;;19.64;67.40;100592.45;1758251;81;21139;-77
2021/06/19 03:50:11;;;;;;;8.70;2.40;;;;;;;19.69;67.65;100599.73;1755559;81;21060;-79
2021/06/19 03:52:38;;;;;;;6.17;2.08;;;;;;;19.75;67.28;100587.77;1756803;81;21720;-76
2021/06/19 03:55:07;;;;;;;6.25;2.15;;;;;;;19.83;67.10;100584.56;1752512;81;21099;-76
2021/06/19 03:57:34;;;;;;;8.98;1.82;;;;;;;19.99;66.68;100580.34;1757077;81;21079;-76
2021/06/19 04:00:01;;;;;;;6.10;2.20;;;;;;;20.17;66.39;100579.07;1775245;80;21187;-73
2021/06/19 04:02:28;;;;;;;5.58;2.08;;;;;;;20.40;65.25;100588.63;1773897;79;21060;-75
2021/06/19 04:04:55;;;;;;;6.58;2.00;;;;;;;20.56;64.93;100583.94;1787538;79;21045;-74
2021/06/19 04:07:23;;;;;;;5.40;2.60;;;;;;;20.68;64.27;100588.42;1780453;80;21017;-75
2021/06/19 04:09:52;;;;;;;6.35;2.12;;;;;;;20.68;64.03;100592.89;1778391;80;21039;-74
2021/06/19 04:12:21;;;;;;;12.60;2.55;;;;;;;20.62;64.24;100588.86;1784660;80;21136;-75
2021/06/19 04:14:49;;;;;;;5.47;1.85;;;;;;;20.58;64.40;100582.00;1790108;80;21586;-78
2021/06/19 04:17:16;;;;;;;5.20;2.10;;;;;;;20.53;64.30;100588.14;1770014;79;21059;-78
2021/06/19 04:19:44;;;;;;;4.45;2.00;;;;;;;20.45;64.86;100591.83;1761762;79;21056;-77
2021/06/19 04:22:12;;;;;;;6.72;1.92;;;;;;;20.40;65.11;100598.84;1764425;79;21060;-72
2021/06/19 04:24:39;;;;;;;5.87;2.02;;;;;;;20.40;65.27;100596.66;1767601;79;21132;-72
2021/06/19 04:27:17;;;;;;;9.20;1.98;;;;;;;20.44;65.27;100596.33;1788142;80;21167;-72
2021/06/19 04:29:46;;;;;;;8.13;2.27;;;;;;;20.59;65.03;100594.89;1779894;80;21080;-71
2021/06/19 04:32:13;;;;;;;5.42;2.50;;;;;;;20.83;63.90;100596.30;1742612;80;20985;-74
2021/06/19 04:34:43;;;;;;;6.53;1.90;;;;;;;21.02;63.67;100591.79;1730247;81;21284;-74
2021/06/19 04:37:11;;;;;;;6.45;1.98;;;;;;;21.20;63.73;100590.92;1757683;80;21686;-75
2021/06/19 04:39:44;;;;;;;3.35;1.90;;;;;;;21.32;62.94;100595.36;1772461;80;22442;-76
2021/06/19 04:42:09;;;;;;;5.30;1.90;;;;;;;21.32;62.66;100594.02;1770260;80;21539;-77
2021/06/19 04:47:25;;;;;;;8.15;1.92;;;;;;;21.21;63.11;100595.30;1782563;79;21015;-78
2021/06/19 04:49:53;;;;;;;4.97;2.05;;;;;;;21.22;63.08;100600.55;1780443;79;21053;-77
2021/06/19 04:52:21;;;;;;;6.72;1.92;;;;;;;21.27;62.54;100600.20;1780984;79;21032;-77
2021/06/19 04:54:49;;;;;;;8.05;2.50;;;;;;;21.28;62.68;100597.89;1783965;79;21032;-74
2021/06/19 04:57:16;;;;;;;7.12;2.20;;;;;;;21.32;62.92;100595.36;1765344;79;21123;-76
2021/06/19 04:59:43;;;;;;;6.78;2.30;;;;;;;21.40;62.44;100597.02;1760238;80;21000;-76
2021/06/19 05:02:10;;;;;;;7.55;2.25;;;;;;;21.51;62.26;100593.05;1760138;81;21801;-76
2021/06/19 05:04:37;;;;;;;6.95;2.33;;;;;;;21.74;61.90;100589.09;1760095;81;21092;-80
2021/06/19 05:07:04;;;;;;;11.00;2.22;;;;;;;22.08;61.12;100595.88;1763416;80;21021;-78
2021/06/19 05:09:31;;;;;;;6.72;2.37;;;;;;;22.41;59.69;100597.29;1758736;80;21100;-80
2021/06/19 05:11:58;;;;;;;11.22;2.95;;;;;;;22.70;58.73;100595.43;1764414;80;21127;-80
2021/06/19 05:14:25;;;;;;;5.15;2.60;;;;;;;22.93;58.31;100594.06;1770581;80;21093;-78
2021/06/19 05:16:54;;;;;;;9.20;2.75;;;;;;;23.14;57.23;100597.70;1765340;79;21099;-81
2021/06/19 05:19:22;;;;;;;10.10;2.52;;;;;;;23.39;56.44;100587.61;1766546;79;21056;-80
2021/06/19 05:21:49;;;;;;;4.17;2.52;;;;;;;23.66;55.58;100589.31;1779266;79;21089;-82
2021/06/19 05:24:17;;;;;;;16.97;2.50;;;;;;;23.86;54.88;100586.81;1781631;80;21041;-82
2021/06/19 05:26:44;;;;;;;9.03;3.20;;;;;;;24.06;54.58;100581.04;1790827;80;21579;-83
2021/06/19 05:29:11;;;;;;;8.78;3.17;;;;;;;24.31;53.05;100575.72;1785886;80;21044;-80
2021/06/19 05:31:39;;;;;;;7.62;2.60;;;;;;;24.48;52.54;100587.74;1769356;79;21072;-81
2021/06/19 05:34:06;;;;;;;8.53;2.00;;;;;;;24.65;52.69;100576.31;1772712;80;21156;-79
2021/06/19 05:36:36;;;;;;;9.03;2.27;;;;;;;24.90;52.07;100580.34;1770269;80;21186;-80
2021/06/19 05:39:03;;;;;;;7.15;2.45;;;;;;;25.11;51.41;100585.63;1761451;80;21971;-82
2021/06/19 05:41:31;;;;;;;12.20;2.65;;;;;;;25.38;50.66;100594.08;1762742;80;21099;-78
2021/06/19 05:43:58;;;;;;;10.60;3.20;;;;;;;25.61;49.90;100592.78;1768078;79;21116;-72
2021/06/19 05:46:25;;;;;;;4.25;2.30;;;;;;;25.87;49.77;100593.06;1769801;80;21517;-76
2021/06/19 05:48:56;;;;;;;14.85;2.30;;;;;;;26.22;48.23;100597.45;1771248;80;21085;-76
2021/06/19 05:51:21;;;;;;;9.88;2.15;;;;;;;26.29;48.08;100594.52;1775459;80;21134;-77
2021/06/19 05:53:48;;;;;;;9.08;2.20;;;;;;;26.36;48.33;100594.28;1764869;80;21061;-73
2021/06/19 05:56:15;;;;;;;11.45;1.90;;;;;;;26.65;47.66;100589.30;1753992;80;21141;-82
2021/06/19 05:58:43;;;;;;;6.22;2.17;;;;;;;26.82;47.34;100588.48;1753881;80;21148;-84
2021/06/19 06:01:09;;;;;;;10.82;2.00;;;;;;;26.91;46.62;100592.97;1767109;80;21072;-85
2021/06/19 06:03:38;;;;;;;8.33;2.00;;;;;;;27.04;46.34;100586.37;1761784;80;21586;-79
2021/06/19 06:06:05;;;;;;;10.65;2.37;;;;;;;27.16;45.43;100594.59;1770205;80;21072;-79
2021/06/19 06:08:32;;;;;;;10.68;2.90;;;;;;;27.19;45.82;100596.52;1791350;80;21048;-78
2021/06/19 06:10:59;;;;;;;9.83;2.40;;;;;;;27.39;45.12;100598.58;1769085;80;21052;-78
2021/06/19 06:13:26;;;;;;;8.73;2.58;;;;;;;27.43;44.95;100592.87;1753908;81;21080;-79
2021/06/19 06:15:53;;;;;;;15.10;3.70;;;;;;;27.53;44.65;100597.69;1766863;80;21131;-79
2021/06/19 06:18:20;;;;;;;14.50;3.10;;;;;;;27.56;44.02;100601.42;1787818;80;21088;-79
2021/06/19 06:20:47;;;;;;;11.50;2.87;;;;;;;27.67;44.14;100598.98;1778515;79;21013;-78
2021/06/19 06:23:14;;;;;;;10.72;3.12;;;;;;;27.72;44.00;100605.65;1786997;80;21057;-78
2021/06/19 06:25:41;;;;;;;15.40;3.37;;;;;;;27.80;43.65;100596.23;1780192;79;21191;-78
2021/06/19 06:28:09;;;;;;;7.67;2.37;;;;;;;27.88;43.49;100600.03;1757419;80;21150;-78
2021/06/19 06:30:36;;;;;;;16.40;3.05;;;;;;;27.98;43.31;100604.86;1781639;80;21516;-78
2021/06/19 06:33:04;;;;;;;11.22;2.20;;;;;;;28.07;43.45;100603.03;1755987;79;21104;-77
2021/06/19 06:35:31;;;;;;;5.90;2.10;;;;;;;28.17;43.50;100607.34;1743521;81;21009;-79
2021/06/19 06:37:58;;;;;;;8.43;1.60;;;;;;;28.28;42.52;100604.04;1768163;80;21092;-79
2021/06/19 06:40:25;;;;;;;9.23;2.35;;;;;;;28.29;42.72;100607.92;1791620;79;21723;-78
2021/06/19 06:42:54;;;;;;;12.18;2.27;;;;;;;28.22;42.99;100603.64;1748934;79;21079;-79
2021/06/19 06:45:20;;;;;;;12.28;2.50;;;;;;;28.13;43.30;100593.77;1749122;81;21139;-78
2021/06/19 06:47:48;;;;;;;7.65;2.35;;;;;;;28.24;43.41;100599.44;1729303;80;21014;-79
2021/06/19 06:50:15;;;;;;;12.90;3.08;;;;;;;28.46;43.06;100583.14;1730008;80;21627;-78
2021/06/19 06:52:42;;;;;;;15.20;2.70;;;;;;;28.76;42.29;100590.38;1735336;81;21136;-78
2021/06/19 06:55:11;;;;;;;6.55;2.60;;;;;;;28.85;42.33;100593.50;1730435;80;21815;-78
2021/06/19 06:57:38;;;;;;;10.63;3.00;;;;;;;28.90;41.86;100590.29;1751138;81;21690;-78
2021/06/19 07:00:07;;;;;;;8.40;2.65;;;;;;;28.94;42.01;100588.44;1728402;80;21017;-79
2021/06/19 07:02:33;;;;;;;11.83;3.25;;;;;;;29.12;41.37;100587.48;1709048;82;21066;-79
2021/06/19 07:05:00;;;;;;;12.58;2.65;;;;;;;29.41;41.20;100590.58;1695260;83;21130;-79
2021/06/19 07:07:27;;;;;;;16.05;3.00;;;;;;;29.48;41.30;100583.45;1727024;82;21524;-78
2021/06/19 07:09:54;;;;;;;14.15;3.08;;;;;;;29.44;41.09;100587.52;1726642;82;21088;-77
2021/06/19 07:12:21;;;;;;;18.23;3.42;;;;;;;29.36;41.14;100590.76;1723764;81;20998;-78
2021/06/19 07:14:48;;;;;;;10.32;2.90;;;;;;;29.28;41.50;100591.05;1724211;81;21296;-78
2021/06/19 07:17:15;;;;;;;8.03;2.50;;;;;;;29.39;41.99;100588.53;1730197;81;21118;-77
2021/06/19 07:19:43;;;;;;;12.10;2.62;;;;;;;29.68;41.04;100580.45;1736398;81;21125;-77
2021/06/19 07:22:10;;;;;;;16.95;3.02;;;;;;;29.97;40.87;100583.13;1713846;82;21091;-76
2021/06/19 07:24:38;;;;;;;10.05;2.27;;;;;;;30.10;39.77;100573.94;1709042;81;21100;-77
2021/06/19 07:27:07;;;;;;;15.08;3.02;;;;;;;30.21;38.65;100580.37;1712376;81;21099;-77
2021/06/19 07:29:34;;;;;;;22.35;3.20;;;;;;;30.11;38.63;100576.98;1722389;82;21117;-78
2021/06/19 07:32:01;;;;;;;17.92;3.72;;;;;;;29.98;39.70;100582.09;1691449;82;21103;-76
2021/06/19 07:34:29;;;;;;;9.68;2.70;;;;;;;29.96;39.14;100580.09;1697536;83;21056;-78
2021/06/19 07:36:57;;;;;;;12.75;2.00;;;;;;;29.82;39.23;100587.06;1695786;82;21182;-78
2021/06/19 07:39:25;;;;;;;9.88;2.35;;;;;;;29.66;38.71;100591.95;1729037;81;21143;-76
2021/06/19 07:41:52;;;;;;;8.63;1.98;;;;;;;29.55;39.67;100581.44;1717320;83;21999;-77
2021/06/19 07:44:20;;;;;;;9.90;2.12;;;;;;;29.61;39.03;100584.80;1737752;81;21052;-78
2021/06/19 07:46:49;;;;;;;13.95;2.30;;;;;;;29.60;39.54;100584.48;1728822;81;21096;-75
2021/06/19 07:49:19;;;;;;;7.90;1.90;;;;;;;29.52;39.92;100581.75;1733944;81;21058;-79
2021/06/19 07:51:47;;;;;;;5.78;2.05;;;;;;;29.43;39.64;100580.41;1731537;81;21521;-79
2021/06/19 07:54:14;;;;;;;12.53;2.17;;;;;;;29.40;40.39;100576.69;1721738;81;21166;-81
2021/06/19 07:56:43;;;;;;;7.33;2.20;;;;;;;29.42;40.40;100578.70;1696415;83;21130;-80
2021/06/19 07:59:10;;;;;;;16.25;3.20;;;;;;;29.29;40.77;100581.08;1697308;83;21066;-78
2021/06/19 08:01:37;;;;;;;14.85;2.90;;;;;;;29.56;40.83;100585.31;1700832;83;21100;-80
2021/06/19 08:04:05;;;;;;;10.20;2.40;;;;;;;29.78;40.06;100583.83;1717349;82;21097;-80
2021/06/19 08:06:32;;;;;;;6.83;2.45;;;;;;;29.87;40.24;100574.66;1720425;82;21168;-80
2021/06/19 08:08:59;;;;;;;15.43;2.33;;;;;;;29.96;40.10;100578.21;1716236;82;21069;-80
2021/06/19 08:11:27;;;;;;;8.15;2.52;;;;;;;30.15;39.62;100563.39;1714428;82;21042;-79
2021/06/19 08:13:55;;;;;;;9.50;2.65;;;;;;;30.35;39.07;100568.48;1707855;83;21547;-81
2021/06/19 08:16:22;;;;;;;7.00;2.62;;;;;;;30.40;39.49;100572.87;1713285;82;21079;-79
2021/06/19 08:18:49;;;;;;;8.88;2.50;;;;;;;30.51;38.81;100560.27;1708124;82;21785;-80
2021/06/19 08:21:16;;;;;;;8.08;2.22;;;;;;;30.61;39.24;100563.59;1712511;82;21155;-81
2021/06/19 08:23:44;;;;;;;10.25;2.70;;;;;;;30.78;38.41;100567.59;1709182;82;21010;-79
2021/06/19 08:26:11;;;;;;;8.70;1.87;;;;;;;30.70;38.23;100562.53;1702673;82;21045;-79
2021/06/19 08:28:38;;;;;;;6.92;2.17;;;;;;;30.44;38.51;100556.56;1718018;82;21094;-79
2021/06/19 08:31:06;;;;;;;6.95;2.30;;;;;;;29.88;39.39;100557.33;1708815;82;21153;-80
2021/06/19 08:33:34;;;;;;;11.30;2.70;;;;;;;29.52;40.45;100551.91;1714296;82;21614;-81
2021/06/19 08:36:00;;;;;;;14.50;2.50;;;;;;;29.48;41.93;100559.04;1696419;82;21056;-81
2021/06/19 08:38:27;;;;;;;14.45;2.62;;;;;;;29.67;40.51;100547.50;1698852;83;21029;-81
2021/06/19 08:40:54;;;;;;;10.35;2.70;;;;;;;29.82;40.59;100547.18;1707855;82;21058;-81
2021/06/19 08:43:21;;;;;;;12.13;2.40;;;;;;;30.05;40.52;100541.03;1719235;82;22118;-82
2021/06/19 08:45:50;;;;;;;12.65;2.52;;;;;;;30.37;39.69;100541.95;1708471;82;21116;-81
2021/06/19 08:48:18;;;;;;;19.25;2.47;;;;;;;30.66;39.29;100548.12;1716270;82;21105;-80
2021/06/19 08:50:47;;;;;;;10.88;2.72;;;;;;;30.62;38.97;100544.92;1725016;82;21096;-81
2021/06/19 08:53:14;;;;;;;17.77;2.72;;;;;;;30.62;39.15;100542.70;1701771;82;21549;-80
2021/06/19 08:55:42;;;;;;;11.08;2.67;;;;;;;30.58;39.42;100534.06;1726320;82;21156;-81
2021/06/19 08:58:08;;;;;;;8.93;2.50;;;;;;;30.56;39.65;100538.83;1716895;82;21598;-80
2021/06/19 09:00:36;;;;;;;8.50;2.35;;;;;;;30.59;39.37;100537.11;1707908;82;21029;-80
2021/06/19 09:03:03;;;;;;;19.92;2.58;;;;;;;30.90;39.15;100534.43;1718772;82;21585;-80
2021/06/19 09:05:30;;;;;;;8.23;2.35;;;;;;;31.08;38.01;100540.95;1726433;82;21242;-81
2021/06/19 09:07:58;;;;;;;14.58;2.52;;;;;;;31.04;38.05;100548.28;1713723;82;21142;-80
2021/06/19 09:10:33;;;;;;;28.40;2.87;;;;;;;30.94;37.80;100536.25;1713886;82;21578;-81
2021/06/19 09:13:14;;;;;;;11.43;2.75;;;;;;;31.08;37.35;100530.06;1719289;82;21587;-81
2021/06/19 09:15:56;;;;;;;8.70;2.37;;;;;;;31.31;37.84;100529.19;1717864;82;21055;-81
2021/06/19 09:18:27;;;;;;;15.53;2.40;;;;;;;31.31;37.84;100529.19;1699024;82;21211;-81
2021/06/19 09:21:04;;;;;;;19.55;2.90;;;;;;;31.62;37.01;100532.37;1728621;82;21158;-81
2021/06/19 09:23:43;;;;;;;6.42;2.35;;;;;;;31.66;36.52;100537.27;1714331;82;21571;-82
2021/06/19 09:26:14;;;;;;;10.57;2.20;;;;;;;31.53;36.43;100528.35;1723446;82;21039;-83
2021/06/19 09:29:11;;;;;;;15.28;2.00;;;;;;;31.46;36.48;100521.95;1704923;81;20993;-81
2021/06/19 09:31:53;;;;;;;11.90;2.72;;;;;;;31.23;35.04;100513.79;1720866;81;21035;-82
2021/06/19 09:37:03;;;;;;;12.93;2.35;;;;;;;31.08;35.73;100518.31;1809440;78;23284;-82
2021/06/19 09:39:32;;;;;;;12.50;2.10;;;;;;;31.00;35.50;100523.31;1764624;80;21045;-82
2021/06/19 09:42:04;;;;;;;14.23;1.80;;;;;;;31.01;35.70;100514.63;1786133;80;21129;-81
2021/06/19 09:44:47;;;;;;;7.70;1.85;;;;;;;31.08;35.92;100512.88;1777329;80;21037;-82
2021/06/19 09:47:18;;;;;;;13.38;2.08;;;;;;;31.33;34.90;100499.41;1787297;80;21021;-82
2021/06/19 09:49:47;;;;;;;8.88;1.67;;;;;;;31.33;34.90;100499.41;1786231;80;21096;-81
2021/06/19 09:52:14;;;;;;;11.15;2.33;;;;;;;31.70;35.02;100494.16;1787461;80;21092;-83
2021/06/19 09:54:44;;;;;;;21.30;2.52;;;;;;;32.04;33.50;100488.73;1762600;80;21104;-79
2021/06/19 09:57:18;;;;;;;;;;;;;;;32.04;33.50;100488.73;1784846;80;21077;-81
2021/06/19 09:59:45;;;;;;;10.55;2.12;;;;;;;32.04;33.23;100498.27;1776771;80;20171;-82
2021/06/19 10:02:28;;;;;;;10.63;1.80;;;;;;;32.05;33.53;100487.68;1771590;80;21096;-82
2021/06/19 10:04:58;;;;;;;12.82;2.08;;;;;;;32.19;32.67;100497.75;1772074;80;21057;-81
2021/06/19 10:07:31;;;;;;;13.60;1.90;;;;;;;32.26;32.89;100495.95;1767399;80;21793;-82
2021/06/19 10:09:58;;;;;;;18.35;2.22;;;;;;;32.04;31.93;100494.17;1722169;83;21101;-81
2021/06/19 10:12:32;;;;;;;16.67;1.92;;;;;;;31.92;32.83;100497.33;1722709;81;21128;-82
2021/06/19 10:15:12;;;;;;;7.55;1.77;;;;;;;32.02;32.95;100486.70;1705343;83;21088;-81
2021/06/19 10:17:43;;;;;;;19.65;1.98;;;;;;;31.94;32.83;100477.56;1696053;84;21080;-83
2021/06/19 10:20:31;;;;;;;12.10;1.70;;;;;;;31.84;32.71;100472.94;1706261;83;21157;-84
2021/06/19 10:22:56;;;;;;;12.05;1.95;;;;;;;31.70;33.14;100483.27;1668207;84;21005;-82
2021/06/19 10:25:26;;;;;;;8.80;1.50;;;;;;;31.32;33.79;100476.48;1696722;83;21071;-81
2021/06/19 10:27:52;;;;;;;8.08;1.60;;;;;;;31.27;34.23;100475.67;1707511;82;21037;-83
2021/06/19 10:30:22;;;;;;;6.20;1.50;;;;;;;31.21;34.80;100475.55;1706596;83;21108;-82
2021/06/19 10:32:50;;;;;;;;;;;;;;;31.09;34.37;100480.06;1664551;84;21133;-81
2021/06/19 10:35:22;;;;;;;12.13;1.55;;;;;;;30.86;34.44;100462.91;1703683;84;20143;-81
2021/06/19 10:37:51;;;;;;;11.28;1.65;;;;;;;30.98;34.87;100469.61;1689873;84;21054;-81
2021/06/19 10:40:24;;;;;;;14.05;2.52;;;;;;;31.18;34.34;100465.05;1694095;84;21054;-81
2021/06/19 10:42:56;;;;;;;7.80;2.02;;;;;;;31.18;34.34;100465.05;1743539;81;21088;-80
2021/06/19 10:45:24;;;;;;;15.32;1.95;;;;;;;31.28;33.72;100472.42;1737367;82;21109;-81
2021/06/19 10:48:12;;;;;;;4.25;1.42;;;;;;;31.17;33.88;100472.86;1714813;82;21103;-82
2021/06/19 10:50:47;;;;;;;21.33;2.02;;;;;;;31.09;33.52;100463.74;1742564;82;21639;-84
2021/06/19 10:53:22;;;;;;;13.00;1.65;;;;;;;30.65;33.23;100473.89;1738646;82;21522;-90
2021/06/19 10:55:53;;;;;;;14.28;2.00;;;;;;;30.65;33.23;100473.89;1699994;84;21601;-83
2021/06/19 10:58:30;;;;;;;19.67;1.92;;;;;;;30.53;33.90;100487.56;1737658;82;21101;-78
2021/06/19 11:01:07;;;;;;;18.90;2.00;;;;;;;30.27;34.33;100472.38;1736077;82;21066;-79
2021/06/19 11:03:48;;;;;;;11.18;2.77;;;;;;;30.05;35.09;100462.28;1701119;84;21058;-80
2021/06/19 11:06:28;;;;;;;12.98;1.98;;;;;;;30.27;35.07;100465.59;1699556;83;21143;-84
2021/06/19 11:09:15;;;;;;;9.23;1.95;;;;;;;30.68;34.91;100468.08;1689099;84;21171;-84
2021/06/19 11:12:01;;;;;;;11.53;2.67;;;;;;;30.97;34.60;100472.02;1665891;83;21088;-84
2021/06/19 11:14:46;;;;;;;8.18;1.72;;;;;;;31.05;34.43;100459.69;1666763;84;21123;-82
2021/06/19 11:17:33;;;;;;;13.43;1.82;;;;;;;31.08;34.32;100466.15;1687067;84;21543;-79
2021/06/19 11:20:12;;;;;;;14.75;2.10;;;;;;;31.32;33.86;100462.88;1736189;81;21104;-77
2021/06/19 11:22:46;;;;;;;13.18;2.27;;;;;;;31.49;32.88;100458.98;1740662;82;21029;-79
2021/06/19 11:25:41;;;;;;;13.03;1.70;;;;;;;31.59;32.61;100455.14;1738048;82;21747;-81
2021/06/19 11:28:22;;;;;;;;;;;;;;;31.79;32.75;100456.28;1655091;86;21602;-82
2021/06/19 11:31:02;;;;;;;10.53;1.50;;;;;;;32.01;32.19;100456.43;1677818;85;20179;-76
2021/06/19 11:33:38;;;;;;;15.80;1.80;;;;;;;32.06;32.40;100458.06;1702369;83;21040;-78
2021/06/19 11:36:09;;;;;;;9.33;2.20;;;;;;;31.73;32.96;100459.78;1713411;83;21052;-77